Detailed Flight Report of Nuri Burak ERKAL ;
Number CXD079 
Departure Aerodrome LTBJ 
Arrival Aerodrome UBBB

Map generated by the Great Circle Mapper - copyright © Karl L. Swartz.

Pilot In Command CXD079 : Nuri Burak Erkal
Aircraft B773 / TC-NZL
Date Of Flight 2020-06-30
Departure Time 12:15 UTC
Arrival Time 14:47 UTC
Block Time 02:32
Distance 1,096 Nm.
Used Fuel 32,767 Lbs.
   
Detailed Flight Log [2020/06/30 12:29:00]
Flight IATA:C001
Pilot Number:079
Company ICAO:CXD
Aircraft Type:B773
Aircraft Registration:TC-NZL
Departing Airport: LTBJ
Destination Airport: UBBB
Alternate Airport:UBBQ
Online: VATSIM
Route:VAKUM UT54 NESET UR32 KFK UT54 HALIL UR32 HAY UW705 GEM UA285 SIV UA4 ERZ UB374 INDUR N161 EDATA M11 ERLEV
Flight Level:FL370
No pause
12:29 Zero fuel Weight: 509339 Lbs, Fuel Weight: 64219 Lbs
12:29 VATSIM:LTBJ 292050Z 35012KT CAVOK 26/09 Q1006 NOSIG
12:29 VATSIM:UBBB 292100Z 16004KT CAVOK 20/16 Q1006 R88/CLRD// NOSIG
12:32 Parking Brakes off
12:42 VR= 175 Knots
12:43 V2= 180 Knots
12:43 Take-off
12:43 Take off Weight: 572093 Lbs
12:43 Wind: 349º @ 007 Knots Heading: 346º
12:43 POS N38º 17´ 54´´ E027º 09´ 21´´
12:43 N11 92 N12 92
12:43 Flaps:5º at 182 Knots
12:43 Gear Up: 186 Knots
12:44 Flaps:1º at 181 Knots
12:45 Flaps:Up at 227 Knots
12:58 Wind:
248º@061 Knots Heading: 084º Ground Speed: 553 Knots Altitude 31030 ft
13:02 TOC
13:02 Fuel Weight: 51683 Lb
13:13 Wind:251º@072 Knots Heading: 086º Ground Speed: 559 Knots Altitude 36896 ft
13:28 Wind:256º@073 Knots Heading: 087º Ground Speed: 561 Knots Altitude 36902 ft
13:43 Wind:264º@070 Knots Heading: 084º Ground Speed: 562 Knots Altitude 36916 ft
13:58 Wind:272º@071 Knots Heading: 088º Ground Speed: 565 Knots Altitude 36945 ft
14:13 Wind:278º@070 Knots Heading: 077º Ground Speed: 560 Knots Altitude 36893 ft
14:27 TOD
14:27 Fuel Weight: 29754 Lb
14:28 Wind:286º@069 Knots Heading: 079º Ground Speed: 534 Knots Altitude 35757 ft
14:43 Wind:325º@011 Knots Heading: 087º Ground Speed: 312 Knots Altitude 11650 ft
14:50 Flaps:1º at 208 Knots
14:50 Flaps:5º at 196 Knots
14:50 Flaps:15º at 188 Knots
14:51 Gear Down: 175 Knots
14:51 Flaps:30º at 170 Knots
14:51 Flap
s:35º at 166 Knots
14:52 Flaps:Full at 158 Knots
14:54 TouchDown:Rate -103 ft/min Speed: 139 Knots
14:54 VATSIM:UBBB 292330Z 16006KT CAVOK 19/16 Q1006 R88/CLRD// NOSIG
14:54 Land
14:54 Wind:159º@006 Knots
14:54 Heading: 166º
14:54 Flight Duration: 02:11
14:54 Landing Weight: 535576 Lbs
14:54 POS N40º 28´ 34´´ E050º 02´ 06´´
15:04 Parking brakes on
15:04 Block to Block Duration: 02:32
15:04 Final Fuel: 25321 Lbls
15:04 Spent Fuel: 38897 Lbls
15:04 Flight Length: 1096 NM
15:04 TOD Land Length: 157 NM

Text Link of Flight Log http://www.candanair.net/acars/logs/CXD07920200630122900.txt
   

[ Back ]